createdAt,value
2023-04-10T00:00:10.062Z,7.09
2023-04-10T00:02:38.769Z,7.06
2023-04-10T00:05:09.029Z,7.08
2023-04-10T00:07:37.538Z,6.98
2023-04-10T00:10:06.944Z,7.09
2023-04-10T00:12:38.877Z,6.95
2023-04-10T00:15:08.727Z,7.04
2023-04-10T00:17:37.093Z,6.96
2023-04-10T00:20:06.860Z,7.00
2023-04-10T00:22:35.396Z,6.80
2023-04-10T00:25:04.095Z,6.96
2023-04-10T00:27:32.467Z,6.87
2023-04-10T00:30:02.646Z,6.89
2023-04-10T00:32:31.084Z,6.91
2023-04-10T00:34:59.380Z,6.90
2023-04-10T00:37:27.769Z,6.53
2023-04-10T00:39:56.261Z,6.88
2023-04-10T00:42:24.645Z,6.72
2023-04-10T00:44:53.085Z,6.89
2023-04-10T00:47:23.137Z,6.83
2023-04-10T00:49:51.788Z,6.88
2023-04-10T00:52:20.275Z,6.87
2023-04-10T00:54:48.714Z,6.80
2023-04-10T00:57:17.122Z,6.83
2023-04-10T00:59:45.731Z,6.82
2023-04-10T01:02:14.112Z,6.80
2023-04-10T01:04:43.940Z,6.76
2023-04-10T01:07:23.107Z,6.66
2023-04-10T01:10:00.841Z,6.76
2023-04-10T01:12:45.702Z,6.61
2023-04-10T01:15:19.597Z,6.80
2023-04-10T01:17:52.723Z,6.64
2023-04-10T01:20:25.009Z,6.70
2023-04-10T01:23:21.398Z,6.85
2023-04-10T01:25:53.383Z,6.84
2023-04-10T01:28:48.184Z,6.72
2023-04-10T01:31:22.501Z,6.83
2023-04-10T01:33:56.028Z,6.89
2023-04-10T01:36:29.548Z,6.88
2023-04-10T01:38:59.623Z,6.89
2023-04-10T01:41:29.188Z,6.83
2023-04-10T01:44:00.428Z,6.84
2023-04-10T01:46:30.892Z,6.72
2023-04-10T01:49:01.985Z,6.68
2023-04-10T01:51:33.834Z,6.58
2023-04-10T01:54:06.909Z,6.49
2023-04-10T01:56:36.033Z,6.40
2023-04-10T01:59:06.642Z,6.45
2023-04-10T02:01:35.107Z,6.40
2023-04-10T02:04:04.403Z,6.30
2023-04-10T02:06:51.910Z,6.27
2023-04-10T02:09:27.411Z,6.16
2023-04-10T02:12:03.189Z,6.09
2023-04-10T02:14:35.496Z,6.12
2023-04-10T02:17:04.963Z,6.00
2023-04-10T02:19:34.237Z,5.93
2023-04-10T02:22:03.100Z,6.12
2023-04-10T02:24:31.850Z,5.90
2023-04-10T02:27:01.584Z,6.19
2023-04-10T02:29:29.908Z,5.79
2023-04-10T02:31:59.651Z,5.84
2023-04-10T02:34:27.944Z,5.96
2023-04-10T02:36:56.403Z,5.82
2023-04-10T02:39:24.986Z,5.87
2023-04-10T02:41:53.886Z,6.09
2023-04-10T02:44:22.244Z,6.02
2023-04-10T02:46:50.802Z,6.24
2023-04-10T02:49:20.865Z,5.87
2023-04-10T02:51:49.267Z,5.72
2023-04-10T02:54:17.676Z,5.62
2023-04-10T02:56:46.365Z,5.51
2023-04-10T02:59:14.738Z,5.67
2023-04-10T03:01:43.422Z,5.50
2023-04-10T03:04:11.980Z,5.60
2023-04-10T03:06:43.599Z,5.61
2023-04-10T03:09:12.102Z,5.54
2023-04-10T03:11:40.445Z,5.49
2023-04-10T03:14:09.761Z,5.51
2023-04-10T03:16:38.288Z,5.48
2023-04-10T03:19:06.763Z,5.43
2023-04-10T03:21:35.227Z,5.51
2023-04-10T03:24:07.296Z,5.23
2023-04-10T03:26:35.827Z,5.23
2023-04-10T03:29:04.629Z,5.29
2023-04-10T03:31:33.007Z,5.32
2023-04-10T03:34:02.536Z,5.31
2023-04-10T03:36:30.944Z,5.09
2023-04-10T03:38:59.396Z,5.11
2023-04-10T03:41:29.104Z,5.09
2023-04-10T03:43:57.570Z,5.06
2023-04-10T03:46:26.469Z,4.93
2023-04-10T03:48:55.311Z,4.94
2023-04-10T03:51:24.707Z,4.99
2023-04-10T03:53:53.743Z,4.89
2023-04-10T03:56:22.655Z,4.80
2023-04-10T03:58:52.499Z,4.90
2023-04-10T04:01:22.159Z,4.85
2023-04-10T04:04:05.353Z,4.76
2023-04-10T04:06:51.643Z,4.83
2023-04-10T04:09:48.983Z,4.88
2023-04-10T04:12:26.434Z,4.59
2023-04-10T04:15:11.539Z,4.69
2023-04-10T04:18:02.865Z,4.74
2023-04-10T04:20:37.767Z,4.71
2023-04-10T04:23:21.175Z,4.65
2023-04-10T04:26:15.601Z,4.62
2023-04-10T04:29:02.376Z,4.59
2023-04-10T04:31:55.553Z,4.52
2023-04-10T04:34:55.612Z,4.57
2023-04-10T04:37:47.191Z,4.65
2023-04-10T04:40:33.866Z,4.60
2023-04-10T04:43:12.269Z,4.53
2023-04-10T04:46:00.940Z,4.60
2023-04-10T04:48:50.644Z,4.51
2023-04-10T04:51:32.492Z,4.56
2023-04-10T04:54:06.546Z,4.49
2023-04-10T04:56:50.085Z,4.46
2023-04-10T04:59:50.455Z,4.51
2023-04-10T05:02:38.945Z,4.55
2023-04-10T05:05:28.835Z,4.30
2023-04-10T05:08:10.731Z,4.43
2023-04-10T05:11:01.932Z,4.62
2023-04-10T05:13:42.339Z,4.71
2023-04-10T05:16:18.538Z,4.72
2023-04-10T05:19:16.346Z,4.76
2023-04-10T05:22:06.279Z,4.80
2023-04-10T05:24:55.433Z,4.56
2023-04-10T05:27:29.577Z,4.74
2023-04-10T05:30:15.394Z,5.04
2023-04-10T05:33:06.724Z,5.04
2023-04-10T05:35:50.384Z,5.06
2023-04-10T05:38:37.648Z,5.10
2023-04-10T05:41:29.544Z,5.04
2023-04-10T05:44:18.141Z,5.03
2023-04-10T05:47:19.529Z,5.16
2023-04-10T05:49:57.617Z,5.19
2023-04-10T05:52:48.636Z,5.28
2023-04-10T05:55:36.308Z,5.24
2023-04-10T05:58:36.679Z,5.10
2023-04-10T06:01:27.664Z,5.11
2023-04-10T06:04:00.678Z,5.17
2023-04-10T06:06:29.772Z,5.35
2023-04-10T06:08:58.249Z,5.39
2023-04-10T06:11:28.023Z,5.48
2023-04-10T06:13:58.190Z,5.56
2023-04-10T06:16:34.072Z,5.67
2023-04-10T06:19:02.772Z,5.76
2023-04-10T06:21:31.799Z,5.66
2023-04-10T06:24:00.185Z,5.83
2023-04-10T06:26:29.933Z,5.82
2023-04-10T06:28:58.606Z,6.04
2023-04-10T06:31:27.380Z,6.14
2023-04-10T06:33:56.537Z,6.13
2023-04-10T06:36:26.091Z,6.24
2023-04-10T06:39:02.736Z,6.28
2023-04-10T06:41:32.605Z,6.28
2023-04-10T06:44:13.189Z,6.53
2023-04-10T06:46:41.676Z,6.48
2023-04-10T06:49:10.069Z,6.63
2023-04-10T06:51:38.409Z,6.95
2023-04-10T06:54:06.760Z,7.34
2023-04-10T06:56:36.506Z,7.40
2023-04-10T06:59:04.853Z,8.22
2023-04-10T07:01:33.233Z,8.43
2023-04-10T07:04:01.565Z,8.53
2023-04-10T07:06:29.915Z,8.95
2023-04-10T07:08:58.224Z,9.34
2023-04-10T07:11:26.542Z,9.67
2023-04-10T07:13:58.453Z,9.79
2023-04-10T07:16:27.607Z,9.87
2023-04-10T07:18:56.537Z,10.79
2023-04-10T07:21:25.199Z,10.23
2023-04-10T07:23:53.533Z,10.61
2023-04-10T07:26:21.906Z,10.76
2023-04-10T07:28:50.235Z,10.95
2023-04-10T07:31:20.289Z,11.37
2023-04-10T07:33:48.791Z,11.61
2023-04-10T07:36:17.183Z,11.35
2023-04-10T07:38:45.647Z,11.65
2023-04-10T07:41:14.161Z,11.74
2023-04-10T07:43:42.551Z,12.56
2023-04-10T07:46:11.233Z,11.37
2023-04-10T07:48:41.077Z,11.53
2023-04-10T07:51:10.266Z,11.94
2023-04-10T07:53:39.887Z,11.55
2023-04-10T07:56:15.718Z,11.28
2023-04-10T07:58:44.229Z,11.93
2023-04-10T08:01:12.745Z,11.92
2023-04-10T08:03:44.343Z,12.42
2023-04-10T08:06:13.609Z,13.17
2023-04-10T08:08:43.583Z,13.30
2023-04-10T08:11:25.771Z,12.49
2023-04-10T08:13:54.765Z,13.28
2023-04-10T08:16:26.228Z,13.54
2023-04-10T08:18:57.664Z,13.57
2023-04-10T08:21:27.290Z,14.23
2023-04-10T08:23:57.480Z,13.10
2023-04-10T08:26:28.064Z,13.63
2023-04-10T08:28:59.891Z,13.89
2023-04-10T08:31:30.315Z,12.74
2023-04-10T08:34:00.526Z,12.87
2023-04-10T08:36:29.376Z,12.75
2023-04-10T08:38:57.717Z,13.47
2023-04-10T08:41:26.538Z,13.64
2023-04-10T08:43:55.355Z,13.56
2023-04-10T08:46:26.152Z,14.04
2023-04-10T08:49:02.704Z,14.51
2023-04-10T08:51:38.341Z,15.59
2023-04-10T08:54:09.496Z,14.43
2023-04-10T08:56:40.899Z,15.87
2023-04-10T08:59:09.919Z,15.07
2023-04-10T09:01:38.653Z,15.34
2023-04-10T09:04:08.838Z,15.78
2023-04-10T09:06:37.271Z,16.76
2023-04-10T09:09:07.212Z,16.84
2023-04-10T09:12:00.910Z,15.04
2023-04-10T09:14:31.920Z,15.68
2023-04-10T09:17:20.718Z,15.30
2023-04-10T09:19:53.441Z,15.80
2023-04-10T09:22:33.061Z,15.85
2023-04-10T09:25:02.805Z,16.36
2023-04-10T09:27:33.718Z,16.12
2023-04-10T09:30:02.512Z,17.18
2023-04-10T09:32:42.742Z,16.60
2023-04-10T09:35:14.822Z,16.94
2023-04-10T09:37:46.762Z,17.31
2023-04-10T09:40:24.479Z,16.04
2023-04-10T09:42:53.744Z,15.69
2023-04-10T09:45:23.027Z,16.03
2023-04-10T09:48:06.108Z,15.86
2023-04-10T09:50:40.984Z,15.74
2023-04-10T09:53:10.357Z,15.43
2023-04-10T09:55:38.916Z,15.49
2023-04-10T09:58:07.516Z,14.41
2023-04-10T10:00:43.088Z,14.39
2023-04-10T10:03:14.048Z,15.09
2023-04-10T10:05:46.990Z,15.07
2023-04-10T10:08:16.578Z,15.26
2023-04-10T10:10:48.418Z,15.56
2023-04-10T10:13:25.744Z,16.08
2023-04-10T10:16:05.894Z,16.07
2023-04-10T10:18:41.442Z,16.14
2023-04-10T10:21:11.695Z,16.11
2023-04-10T10:23:40.677Z,16.90
2023-04-10T10:26:11.409Z,17.78
2023-04-10T10:28:41.927Z,17.61
2023-04-10T10:31:11.699Z,16.03
2023-04-10T10:33:40.274Z,16.30
2023-04-10T10:36:11.458Z,16.45
2023-04-10T10:38:47.757Z,16.05
2023-04-10T10:41:24.947Z,17.23
2023-04-10T10:44:02.693Z,18.11
2023-04-10T10:46:39.521Z,17.47
2023-04-10T10:49:07.892Z,17.24
2023-04-10T10:51:49.229Z,17.57
2023-04-10T10:54:34.008Z,17.73
2023-04-10T10:57:06.463Z,16.50
2023-04-10T10:59:57.793Z,16.55
2023-04-10T11:02:26.823Z,17.13
2023-04-10T11:04:55.534Z,17.90
2023-04-10T11:08:09.229Z,16.97
2023-04-10T11:11:03.034Z,16.67
2023-04-10T11:13:31.502Z,16.41
2023-04-10T11:16:02.124Z,16.69
2023-04-10T11:19:13.977Z,16.59
2023-04-10T11:22:05.720Z,16.90
2023-04-10T11:25:08.623Z,17.22
2023-04-10T11:27:49.667Z,17.06
2023-04-10T11:30:36.270Z,16.69
2023-04-10T11:33:06.721Z,16.99
2023-04-10T11:35:35.572Z,16.66
2023-04-10T11:38:12.738Z,17.05
2023-04-10T11:41:04.600Z,16.93
2023-04-10T11:43:33.773Z,17.00
2023-04-10T11:46:04.656Z,16.79
2023-04-10T11:48:33.428Z,17.07
2023-04-10T11:51:09.378Z,16.94
2023-04-10T11:53:38.560Z,17.25
2023-04-10T11:56:18.199Z,16.99
2023-04-10T11:58:46.561Z,16.62
2023-04-10T12:01:15.680Z,16.95
2023-04-10T12:03:46.132Z,17.09
2023-04-10T12:06:16.675Z,17.26
2023-04-10T12:08:47.739Z,17.61
2023-04-10T12:11:21.279Z,17.36
2023-04-10T12:13:49.997Z,17.00
2023-04-10T12:16:18.651Z,17.41
2023-04-10T12:18:47.523Z,17.46
2023-04-10T12:21:16.225Z,17.32
2023-04-10T12:23:44.582Z,17.30
2023-04-10T12:26:16.903Z,17.25
2023-04-10T12:28:57.555Z,17.49
2023-04-10T12:31:30.102Z,17.45
2023-04-10T12:33:58.787Z,17.68
2023-04-10T12:36:30.226Z,17.71
2023-04-10T12:38:59.761Z,17.54
2023-04-10T12:41:32.101Z,17.65
2023-04-10T12:44:12.497Z,17.70
2023-04-10T12:46:42.111Z,17.64
2023-04-10T12:49:12.867Z,17.60
2023-04-10T12:51:46.417Z,17.91
2023-04-10T12:54:30.067Z,17.97
2023-04-10T12:57:00.571Z,17.98
2023-04-10T12:59:30.891Z,17.99
2023-04-10T13:01:59.541Z,18.12
2023-04-10T13:04:28.408Z,18.26
2023-04-10T13:06:57.164Z,18.14
2023-04-10T13:09:25.575Z,18.14
2023-04-10T13:11:53.904Z,18.21
2023-04-10T13:14:23.958Z,18.01
2023-04-10T13:16:52.310Z,17.98
2023-04-10T13:19:20.681Z,17.91
2023-04-10T13:21:51.986Z,18.00
2023-04-10T13:24:20.387Z,18.02
2023-04-10T13:26:48.727Z,18.17
2023-04-10T13:29:17.157Z,18.27
2023-04-10T13:31:46.962Z,18.12
2023-04-10T13:34:15.431Z,18.16
2023-04-10T13:36:44.236Z,18.21
2023-04-10T13:39:12.734Z,17.87
2023-04-10T13:41:41.333Z,18.06
2023-04-10T13:44:09.858Z,18.19
2023-04-10T13:46:38.250Z,18.19
2023-04-10T13:49:08.037Z,18.30
2023-04-10T13:51:36.444Z,18.16
2023-04-10T13:54:05.198Z,18.27
2023-04-10T13:56:33.472Z,18.24
2023-04-10T13:59:01.861Z,18.02
2023-04-10T14:01:30.346Z,18.07
2023-04-10T14:03:58.940Z,18.10
2023-04-10T14:06:29.017Z,17.84
2023-04-10T14:08:57.356Z,18.05
2023-04-10T14:11:26.720Z,18.08
2023-04-10T14:13:55.391Z,18.10
2023-04-10T14:16:23.832Z,18.14
2023-04-10T14:18:52.259Z,18.17
2023-04-10T14:21:20.899Z,18.14
2023-04-10T14:23:50.688Z,18.09
2023-04-10T14:26:19.103Z,18.04
2023-04-10T14:28:47.713Z,18.01
2023-04-10T14:31:16.229Z,18.05
2023-04-10T14:33:44.737Z,18.17
2023-04-10T14:36:13.159Z,17.99
2023-04-10T14:38:41.604Z,17.97
2023-04-10T14:41:11.649Z,17.89
2023-04-10T14:43:40.048Z,17.89
2023-04-10T14:46:08.760Z,18.03
2023-04-10T14:48:37.193Z,17.98
2023-04-10T14:51:12.657Z,17.94
2023-04-10T14:53:42.326Z,17.95
2023-04-10T14:56:15.931Z,17.88
2023-04-10T14:58:44.876Z,17.86
2023-04-10T15:01:13.909Z,17.89
2023-04-10T15:03:42.329Z,17.86
2023-04-10T15:06:10.937Z,17.85
2023-04-10T15:08:39.336Z,17.90
2023-04-10T15:11:07.989Z,17.95
2023-04-10T15:13:39.494Z,17.86
2023-04-10T15:16:09.174Z,17.90
2023-04-10T15:18:37.584Z,17.88
2023-04-10T15:21:07.121Z,17.82
2023-04-10T15:23:35.548Z,17.78
2023-04-10T15:26:03.893Z,17.69
2023-04-10T15:28:32.215Z,17.73
2023-04-10T15:31:01.957Z,17.73
2023-04-10T15:33:30.369Z,17.85
2023-04-10T15:35:58.770Z,17.83
2023-04-10T15:38:28.765Z,17.51
2023-04-10T15:40:57.435Z,17.80
2023-04-10T15:43:25.732Z,17.75
2023-04-10T15:45:54.103Z,17.77
2023-04-10T15:48:24.718Z,17.55
2023-04-10T15:50:53.122Z,17.64
2023-04-10T15:53:21.518Z,17.58
2023-04-10T15:55:49.862Z,17.64
2023-04-10T15:58:18.234Z,17.74
2023-04-10T16:00:46.654Z,17.88
2023-04-10T16:03:15.370Z,18.02
2023-04-10T16:05:45.309Z,17.91
2023-04-10T16:08:13.681Z,17.98
2023-04-10T16:10:42.021Z,17.58
2023-04-10T16:13:10.365Z,17.76
2023-04-10T16:15:40.587Z,17.68
2023-04-10T16:18:09.412Z,17.01
2023-04-10T16:20:38.506Z,17.54
2023-04-10T16:23:08.449Z,17.34
2023-04-10T16:25:36.868Z,17.43
2023-04-10T16:28:07.885Z,17.37
2023-04-10T16:30:36.605Z,17.36
2023-04-10T16:33:05.206Z,17.28
2023-04-10T16:35:33.677Z,17.26
2023-04-10T16:38:02.110Z,17.20
2023-04-10T16:40:33.225Z,17.20
2023-04-10T16:43:01.990Z,17.20
2023-04-10T16:45:30.751Z,17.10
2023-04-10T16:47:59.187Z,17.11
2023-04-10T16:50:27.607Z,17.12
2023-04-10T16:52:56.005Z,17.11
2023-04-10T16:55:24.333Z,17.03
2023-04-10T16:57:54.051Z,17.11
2023-04-10T17:00:22.813Z,17.07
2023-04-10T17:02:51.134Z,17.03
2023-04-10T17:05:19.640Z,16.96
2023-04-10T17:07:48.157Z,16.99
2023-04-10T17:10:16.777Z,16.90
2023-04-10T17:12:45.870Z,16.90
2023-04-10T17:15:15.874Z,16.85
2023-04-10T17:17:44.307Z,16.78
2023-04-10T17:20:17.206Z,16.80
2023-04-10T17:22:46.163Z,16.82
2023-04-10T17:25:14.779Z,16.75
2023-04-10T17:27:43.222Z,16.75
2023-04-10T17:30:15.381Z,16.71
2023-04-10T17:32:43.833Z,16.70
2023-04-10T17:35:12.261Z,16.61
2023-04-10T17:37:40.634Z,16.64
2023-04-10T17:40:12.055Z,16.61
2023-04-10T17:42:40.427Z,16.56
2023-04-10T17:45:09.776Z,16.51
2023-04-10T17:47:40.079Z,16.47
2023-04-10T17:50:10.647Z,16.42
2023-04-10T17:52:39.130Z,16.42
2023-04-10T17:55:08.808Z,16.28
2023-04-10T17:57:37.133Z,16.17
2023-04-10T18:00:09.794Z,16.21
2023-04-10T18:02:39.876Z,16.14
2023-04-10T18:05:09.198Z,16.14
2023-04-10T18:07:38.005Z,16.21
2023-04-10T18:10:09.675Z,16.11
2023-04-10T18:12:39.339Z,16.11
2023-04-10T18:15:09.542Z,16.09
2023-04-10T18:17:39.580Z,16.04
2023-04-10T18:20:08.720Z,16.07
2023-04-10T18:22:37.113Z,16.00
2023-04-10T18:25:06.405Z,16.02
2023-04-10T18:27:35.975Z,16.01
2023-04-10T18:30:04.599Z,15.87
2023-04-10T18:32:33.098Z,15.90
2023-04-10T18:35:03.671Z,15.94
2023-04-10T18:37:32.361Z,15.88
2023-04-10T18:40:06.392Z,15.94
2023-04-10T18:42:42.089Z,15.90
2023-04-10T18:45:13.055Z,15.83
2023-04-10T18:47:41.577Z,15.90
2023-04-10T18:50:12.188Z,15.81
2023-04-10T18:52:40.612Z,15.86
2023-04-10T18:55:09.934Z,15.84
2023-04-10T18:57:38.297Z,15.79
2023-04-10T19:00:08.372Z,15.77
2023-04-10T19:02:37.043Z,15.69
2023-04-10T19:05:06.167Z,15.71
2023-04-10T19:07:35.964Z,15.70
2023-04-10T19:10:04.416Z,15.67
2023-04-10T19:12:35.096Z,15.70
2023-04-10T19:15:05.267Z,15.69
2023-04-10T19:17:33.695Z,15.66
2023-04-10T19:20:02.634Z,15.61
2023-04-10T19:22:32.867Z,15.61
2023-04-10T19:25:02.626Z,15.58
2023-04-10T19:27:31.138Z,15.62
2023-04-10T19:29:59.496Z,15.63
2023-04-10T19:32:27.816Z,15.52
2023-04-10T19:34:56.418Z,15.57
2023-04-10T19:37:24.712Z,15.59
2023-04-10T19:39:53.092Z,15.54
2023-04-10T19:42:22.844Z,15.54
2023-04-10T19:44:51.173Z,15.48
2023-04-10T19:47:19.510Z,15.50
2023-04-10T19:49:47.882Z,15.49
2023-04-10T19:52:16.304Z,15.47
2023-04-10T19:54:44.651Z,15.45
2023-04-10T19:57:13.036Z,15.42
2023-04-10T19:59:42.791Z,15.36
2023-04-10T20:02:12.270Z,15.46
2023-04-10T20:04:40.702Z,15.38
2023-04-10T20:07:10.827Z,15.43
2023-04-10T20:09:39.145Z,15.43
2023-04-10T20:12:08.534Z,15.37
2023-04-10T20:14:36.923Z,15.43
2023-04-10T20:17:07.663Z,15.44
2023-04-10T20:19:36.007Z,15.42
2023-04-10T20:22:04.495Z,15.35
2023-04-10T20:24:32.876Z,15.32
2023-04-10T20:27:01.606Z,15.17
2023-04-10T20:29:29.948Z,15.16
2023-04-10T20:31:58.435Z,15.13
2023-04-10T20:34:28.329Z,15.10
2023-04-10T20:36:56.732Z,15.07
2023-04-10T20:39:25.448Z,15.07
2023-04-10T20:41:54.266Z,15.01
2023-04-10T20:44:22.650Z,14.90
2023-04-10T20:46:51.313Z,14.88
2023-04-10T20:49:19.645Z,14.87
2023-04-10T20:51:49.504Z,14.85
2023-04-10T20:54:18.991Z,14.88
2023-04-10T20:56:47.767Z,14.90
2023-04-10T20:59:16.204Z,14.86
2023-04-10T21:01:44.631Z,14.90
2023-04-10T21:04:13.166Z,14.76
2023-04-10T21:06:41.508Z,14.90
2023-04-10T21:09:11.231Z,14.88
2023-04-10T21:11:39.542Z,14.90
2023-04-10T21:14:08.010Z,14.83
2023-04-10T21:16:41.169Z,14.89
2023-04-10T21:19:09.711Z,14.88
2023-04-10T21:21:38.324Z,14.68
2023-04-10T21:24:07.637Z,14.85
2023-04-10T21:26:37.341Z,14.85
2023-04-10T21:29:05.754Z,14.85
2023-04-10T21:31:34.136Z,14.59
2023-04-10T21:34:02.478Z,14.88
2023-04-10T21:36:31.310Z,14.80
2023-04-10T21:38:59.804Z,14.84
2023-04-10T21:41:28.235Z,14.85
2023-04-10T21:44:00.318Z,14.85
2023-04-10T21:46:28.902Z,14.85
2023-04-10T21:48:57.352Z,14.86
2023-04-10T21:51:26.915Z,15.21
2023-04-10T21:53:55.449Z,14.99
2023-04-10T21:56:23.778Z,15.17
2023-04-10T21:58:53.021Z,15.05
2023-04-10T22:01:23.214Z,15.24
2023-04-10T22:03:51.944Z,15.32
2023-04-10T22:06:20.423Z,15.14
2023-04-10T22:08:48.694Z,15.20
2023-04-10T22:11:17.109Z,15.41
2023-04-10T22:13:45.460Z,15.86
2023-04-10T22:16:13.784Z,15.27
2023-04-10T22:18:43.482Z,15.05
2023-04-10T22:21:13.350Z,15.47
2023-04-10T22:23:41.652Z,14.88
2023-04-10T22:26:09.950Z,15.14
2023-04-10T22:28:38.203Z,14.80
2023-04-10T22:31:06.813Z,14.53
2023-04-10T22:33:35.168Z,14.63
2023-04-10T22:36:05.705Z,14.25
2023-04-10T22:38:34.089Z,14.19
2023-04-10T22:41:02.460Z,13.89
2023-04-10T22:43:30.908Z,14.08
2023-04-10T22:45:59.181Z,13.56
2023-04-10T22:48:27.725Z,13.58
2023-04-10T22:50:56.034Z,13.23
2023-04-10T22:53:25.744Z,13.21
2023-04-10T22:55:54.140Z,13.57
2023-04-10T22:58:22.571Z,13.93
2023-04-10T23:00:50.943Z,13.23
2023-04-10T23:03:19.283Z,12.91
2023-04-10T23:05:48.008Z,13.11
2023-04-10T23:08:16.377Z,13.05
2023-04-10T23:10:46.056Z,12.91
2023-04-10T23:13:14.451Z,12.93
2023-04-10T23:15:49.536Z,12.93
2023-04-10T23:18:18.356Z,12.98
2023-04-10T23:20:47.401Z,12.92
2023-04-10T23:23:15.987Z,12.93
2023-04-10T23:25:45.784Z,12.95
2023-04-10T23:28:14.323Z,12.92
2023-04-10T23:30:43.171Z,12.85
2023-04-10T23:33:11.512Z,12.82
2023-04-10T23:35:39.888Z,12.75
2023-04-10T23:38:08.397Z,12.73
2023-04-10T23:40:36.763Z,12.73
2023-04-10T23:43:06.704Z,12.28
2023-04-10T23:45:35.106Z,12.64
2023-04-10T23:48:03.466Z,12.51
2023-04-10T23:50:31.903Z,12.54
2023-04-10T23:53:00.713Z,12.33
2023-04-10T23:55:29.342Z,12.17
2023-04-10T23:57:57.705Z,12.32
